createdAt,value
2023-02-06T00:04:18.447Z,104072.00
2023-02-06T00:14:19.994Z,104092.09
2023-02-06T00:24:21.313Z,104077.28
2023-02-06T00:34:22.545Z,104065.09
2023-02-06T00:44:23.775Z,104052.00
2023-02-06T00:54:25.012Z,104049.44
2023-02-06T01:04:26.286Z,104059.06
2023-02-06T01:14:27.522Z,104063.44
2023-02-06T01:24:28.800Z,104091.34
2023-02-06T01:34:30.077Z,104071.44
2023-02-06T01:44:31.375Z,104076.59
2023-02-06T01:54:32.645Z,104095.78
2023-02-06T02:04:33.908Z,104094.91
2023-02-06T02:14:35.156Z,104084.53
2023-02-06T02:24:36.394Z,104068.75
2023-02-06T02:34:37.647Z,104057.53
2023-02-06T02:44:38.930Z,104050.56
2023-02-06T02:54:40.239Z,104049.72
2023-02-06T03:04:41.545Z,104040.06
2023-02-06T03:14:42.910Z,104032.22
2023-02-06T03:24:44.174Z,104022.84
2023-02-06T03:34:45.527Z,104027.97
2023-02-06T03:44:46.765Z,104018.41
2023-02-06T03:54:48.041Z,104029.75
2023-02-06T04:04:49.353Z,104014.09
2023-02-06T04:14:50.629Z,104039.31
2023-02-06T04:24:51.940Z,104020.28
2023-02-06T04:34:53.190Z,104028.03
2023-02-06T04:44:54.446Z,104010.59
2023-02-06T04:54:55.691Z,104007.09
2023-02-06T05:04:56.942Z,104023.72
2023-02-06T05:14:58.239Z,104020.25
2023-02-06T05:24:59.521Z,104021.19
2023-02-06T05:35:00.797Z,104031.53
2023-02-06T05:45:02.058Z,104035.25
2023-02-06T05:55:03.304Z,104059.69
2023-02-06T06:05:04.625Z,104058.81
2023-02-06T06:15:05.997Z,104048.25
2023-02-06T06:25:07.319Z,104052.72
2023-02-06T06:35:08.574Z,104071.91
2023-02-06T06:45:10.036Z,104054.41
2023-02-06T06:55:11.359Z,104057.09
2023-02-06T07:05:12.620Z,104028.31
2023-02-06T07:15:13.874Z,104022.97
2023-02-06T07:25:15.180Z,104008.13
2023-02-06T07:35:16.654Z,104013.50
2023-02-06T07:45:18.168Z,103996.91
2023-02-06T07:55:19.548Z,103996.91
2023-02-06T08:05:20.914Z,103982.97
2023-02-06T08:15:22.452Z,103974.25
2023-02-06T08:25:23.716Z,103980.34
2023-02-06T08:35:25.212Z,103983.78
2023-02-06T08:45:26.735Z,103985.56
2023-02-06T08:55:28.254Z,103969.84
2023-02-06T09:05:29.679Z,103955.03
2023-02-06T09:15:31.102Z,103932.38
2023-02-06T09:25:32.616Z,103947.16
2023-02-06T09:35:33.879Z,103947.16
2023-02-06T09:45:35.471Z,103956.75
2023-02-06T09:55:37.231Z,103963.75
2023-02-06T10:05:39.059Z,103971.63
2023-02-06T10:15:40.749Z,103980.38
2023-02-06T10:25:42.141Z,103986.44
2023-02-06T10:35:43.503Z,103988.28
2023-02-06T10:45:44.848Z,103974.25
2023-02-06T10:55:48.795Z,103975.06
2023-02-06T11:05:52.698Z,103964.63
2023-02-06T11:16:00.587Z,103951.53
2023-02-06T11:26:08.795Z,103947.19
2023-02-06T11:36:16.675Z,103943.78
2023-02-06T11:46:25.619Z,103937.66
2023-02-06T11:56:34.136Z,103935.84
2023-02-06T12:06:41.650Z,103915.88
2023-02-06T12:16:49.639Z,103911.59
2023-02-06T12:26:58.906Z,103901.94
2023-02-06T12:37:06.594Z,103894.94
2023-02-06T12:47:14.556Z,103885.38
2023-02-06T12:57:22.626Z,103865.31
2023-02-06T13:07:33.934Z,103849.59
2023-02-06T13:17:39.713Z,103849.50
2023-02-06T13:27:48.145Z,103825.13
2023-02-06T13:37:56.817Z,103812.88
2023-02-06T13:48:04.709Z,103794.50
2023-02-06T13:58:12.794Z,103809.38
2023-02-06T14:08:20.773Z,103814.56
2023-02-06T14:18:29.630Z,103807.56
2023-02-06T14:28:37.615Z,103804.94
2023-02-06T14:39:03.964Z,103809.34
2023-02-06T14:49:05.256Z,103822.41
2023-02-06T14:59:10.410Z,103833.66
2023-02-06T15:09:15.981Z,103825.00
2023-02-06T15:19:21.066Z,103811.78
2023-02-06T15:29:32.350Z,103821.38
2023-02-06T15:39:41.744Z,103821.38
2023-02-06T15:49:49.551Z,103816.94
2023-02-06T15:59:58.832Z,103807.25
2023-02-06T16:10:05.688Z,103798.47
2023-02-06T16:20:14.514Z,103803.69
2023-02-06T16:40:41.771Z,103816.69
2023-02-06T16:50:43.020Z,103814.91
2023-02-06T17:00:44.421Z,103806.19
2023-02-06T17:10:45.855Z,103808.81
2023-02-06T17:20:47.255Z,103820.16
2023-02-06T17:30:48.731Z,103829.72
2023-02-06T17:40:50.170Z,103833.19
2023-02-06T17:50:51.545Z,103834.91
2023-02-06T18:00:53.100Z,103815.66
2023-02-06T18:10:54.670Z,103796.47
2023-02-06T18:20:56.173Z,103807.78
2023-02-06T18:30:57.637Z,103803.50
2023-02-06T18:40:59.172Z,103789.44
2023-02-06T18:51:00.451Z,103788.53
2023-02-06T19:01:01.996Z,103770.22
2023-02-06T19:11:03.544Z,103771.88
2023-02-06T19:21:04.991Z,103756.22
2023-02-06T19:31:06.353Z,103761.50
2023-02-06T19:41:07.995Z,103761.47
2023-02-06T19:51:09.510Z,103766.69
2023-02-06T20:01:11.064Z,103751.97
2023-02-06T20:11:12.626Z,103758.75
2023-02-06T20:21:14.094Z,103778.13
2023-02-06T20:31:15.907Z,103773.66
2023-02-06T20:41:17.534Z,103771.03
2023-02-06T20:51:18.793Z,103771.06
2023-02-06T21:01:20.221Z,103774.56
2023-02-06T21:11:21.519Z,103777.13
2023-02-06T21:21:22.895Z,103777.94
2023-02-06T21:31:24.254Z,103772.63
2023-02-06T21:41:25.650Z,103762.19
2023-02-06T21:51:27.197Z,103744.78
2023-02-06T22:01:28.790Z,103734.28
2023-02-06T22:11:30.347Z,103728.19
2023-02-06T22:21:31.682Z,103731.66
2023-02-06T22:31:33.038Z,103728.22
2023-02-06T22:41:34.317Z,103735.13
2023-02-06T22:51:35.721Z,103732.53
2023-02-06T23:01:37.158Z,103734.28
2023-02-06T23:11:38.462Z,103731.72
2023-02-06T23:21:39.770Z,103726.56
2023-02-06T23:31:41.061Z,103729.19
2023-02-06T23:41:42.349Z,103737.91
2023-02-06T23:51:43.611Z,103735.31
